sensor_id;sensor_type;location;lat;lon;timestamp;temperature;humidity
23991;DHT22;12205;50.600;4.608;2023-10-08T00:02:24;17.00;99.90
23991;DHT22;12205;50.600;4.608;2023-10-08T00:04:52;17.00;99.90
23991;DHT22;12205;50.600;4.608;2023-10-08T00:07:21;17.00;99.90
23991;DHT22;12205;50.600;4.608;2023-10-08T00:09:50;16.90;99.90
23991;DHT22;12205;50.600;4.608;2023-10-08T00:12:18;16.90;99.90
23991;DHT22;12205;50.600;4.608;2023-10-08T00:14:46;16.80;99.90
23991;DHT22;12205;50.600;4.608;2023-10-08T00:17:16;16.80;99.90
23991;DHT22;12205;50.600;4.608;2023-10-08T00:19:44;16.70;99.90
23991;DHT22;12205;50.600;4.608;2023-10-08T00:22:12;16.80;99.90
23991;DHT22;12205;50.600;4.608;2023-10-08T00:24:45;16.60;99.90
23991;DHT22;12205;50.600;4.608;2023-10-08T00:27:15;16.60;99.90
23991;DHT22;12205;50.600;4.608;2023-10-08T00:29:43;16.60;99.90
23991;DHT22;12205;50.600;4.608;2023-10-08T00:32:10;16.60;99.90
23991;DHT22;12205;50.600;4.608;2023-10-08T00:34:43;16.50;99.90
23991;DHT22;12205;50.600;4.608;2023-10-08T00:37:11;16.50;99.90
23991;DHT22;12205;50.600;4.608;2023-10-08T00:39:40;16.50;99.90
23991;DHT22;12205;50.600;4.608;2023-10-08T00:42:10;16.50;99.90
23991;DHT22;12205;50.600;4.608;2023-10-08T00:44:38;16.40;99.90
23991;DHT22;12205;50.600;4.608;2023-10-08T00:47:15;16.40;99.90
23991;DHT22;12205;50.600;4.608;2023-10-08T00:49:46;16.30;99.90
23991;DHT22;12205;50.600;4.608;2023-10-08T00:52:33;16.30;99.90
23991;DHT22;12205;50.600;4.608;2023-10-08T00:55:08;16.30;99.90
23991;DHT22;12205;50.600;4.608;2023-10-08T00:57:41;16.20;99.90
23991;DHT22;12205;50.600;4.608;2023-10-08T01:00:14;16.20;99.90
23991;DHT22;12205;50.600;4.608;2023-10-08T01:02:48;16.10;99.90
23991;DHT22;12205;50.600;4.608;2023-10-08T01:05:20;16.10;99.90
23991;DHT22;12205;50.600;4.608;2023-10-08T01:07:52;16.00;99.90
23991;DHT22;12205;50.600;4.608;2023-10-08T01:10:21;16.00;99.90
23991;DHT22;12205;50.600;4.608;2023-10-08T01:12:52;15.90;99.90
23991;DHT22;12205;50.600;4.608;2023-10-08T01:15:30;15.90;99.90
23991;DHT22;12205;50.600;4.608;2023-10-08T01:18:01;15.80;99.90
23991;DHT22;12205;50.600;4.608;2023-10-08T01:20:30;15.80;99.90
23991;DHT22;12205;50.600;4.608;2023-10-08T01:23:04;15.80;99.90
23991;DHT22;12205;50.600;4.608;2023-10-08T01:25:36;15.70;99.90
23991;DHT22;12205;50.600;4.608;2023-10-08T01:28:05;15.70;99.90
23991;DHT22;12205;50.600;4.608;2023-10-08T01:30:41;15.60;99.90
23991;DHT22;12205;50.600;4.608;2023-10-08T01:33:12;15.60;99.90
23991;DHT22;12205;50.600;4.608;2023-10-08T01:35:41;15.60;99.90
23991;DHT22;12205;50.600;4.608;2023-10-08T01:38:10;15.50;99.90
23991;DHT22;12205;50.600;4.608;2023-10-08T01:40:40;15.50;99.90
23991;DHT22;12205;50.600;4.608;2023-10-08T01:43:07;15.40;99.90
23991;DHT22;12205;50.600;4.608;2023-10-08T01:45:36;15.40;99.90
23991;DHT22;12205;50.600;4.608;2023-10-08T01:48:07;15.40;99.90
23991;DHT22;12205;50.600;4.608;2023-10-08T01:50:36;15.30;99.90
23991;DHT22;12205;50.600;4.608;2023-10-08T01:53:04;15.30;99.90
23991;DHT22;12205;50.600;4.608;2023-10-08T01:55:37;15.30;99.90
23991;DHT22;12205;50.600;4.608;2023-10-08T01:58:16;15.30;99.90
23991;DHT22;12205;50.600;4.608;2023-10-08T02:00:44;15.20;99.90
23991;DHT22;12205;50.600;4.608;2023-10-08T02:03:15;15.20;99.90
23991;DHT22;12205;50.600;4.608;2023-10-08T02:05:43;15.20;99.90
23991;DHT22;12205;50.600;4.608;2023-10-08T02:08:12;15.10;99.90
23991;DHT22;12205;50.600;4.608;2023-10-08T02:10:42;15.10;99.90
23991;DHT22;12205;50.600;4.608;2023-10-08T02:13:13;15.10;99.90
23991;DHT22;12205;50.600;4.608;2023-10-08T02:15:44;15.00;99.90
23991;DHT22;12205;50.600;4.608;2023-10-08T02:18:13;15.00;99.90
23991;DHT22;12205;50.600;4.608;2023-10-08T02:20:40;15.00;99.90
23991;DHT22;12205;50.600;4.608;2023-10-08T02:23:07;14.90;99.90
23991;DHT22;12205;50.600;4.608;2023-10-08T02:25:37;14.90;99.90
23991;DHT22;12205;50.600;4.608;2023-10-08T02:28:08;14.90;99.90
23991;DHT22;12205;50.600;4.608;2023-10-08T02:30:37;14.90;99.90
23991;DHT22;12205;50.600;4.608;2023-10-08T02:33:05;14.90;99.90
23991;DHT22;12205;50.600;4.608;2023-10-08T02:35:40;14.90;99.90
23991;DHT22;12205;50.600;4.608;2023-10-08T02:38:09;14.90;99.90
23991;DHT22;12205;50.600;4.608;2023-10-08T02:40:38;14.90;99.90
23991;DHT22;12205;50.600;4.608;2023-10-08T02:43:12;14.90;99.90
23991;DHT22;12205;50.600;4.608;2023-10-08T02:45:40;14.90;99.90
23991;DHT22;12205;50.600;4.608;2023-10-08T02:48:12;14.90;99.90
23991;DHT22;12205;50.600;4.608;2023-10-08T02:50:42;14.80;99.90
23991;DHT22;12205;50.600;4.608;2023-10-08T02:53:11;14.80;99.90
23991;DHT22;12205;50.600;4.608;2023-10-08T02:55:43;14.80;99.90
23991;DHT22;12205;50.600;4.608;2023-10-08T02:58:14;14.80;99.90
23991;DHT22;12205;50.600;4.608;2023-10-08T03:00:41;14.80;99.90
23991;DHT22;12205;50.600;4.608;2023-10-08T03:03:09;14.80;99.90
23991;DHT22;12205;50.600;4.608;2023-10-08T03:05:43;14.80;99.90
23991;DHT22;12205;50.600;4.608;2023-10-08T03:08:12;14.80;99.90
23991;DHT22;12205;50.600;4.608;2023-10-08T03:10:45;14.70;99.90
23991;DHT22;12205;50.600;4.608;2023-10-08T03:13:15;14.70;99.90
23991;DHT22;12205;50.600;4.608;2023-10-08T03:15:45;14.60;99.90
23991;DHT22;12205;50.600;4.608;2023-10-08T03:18:33;14.60;99.90
23991;DHT22;12205;50.600;4.608;2023-10-08T03:21:02;14.60;99.90
23991;DHT22;12205;50.600;4.608;2023-10-08T03:23:31;14.60;99.90
23991;DHT22;12205;50.600;4.608;2023-10-08T03:26:01;14.60;99.90
23991;DHT22;12205;50.600;4.608;2023-10-08T03:28:39;14.60;99.90
23991;DHT22;12205;50.600;4.608;2023-10-08T03:31:07;14.70;99.90
23991;DHT22;12205;50.600;4.608;2023-10-08T03:33:42;14.70;99.90
23991;DHT22;12205;50.600;4.608;2023-10-08T03:36:14;14.70;99.90
23991;DHT22;12205;50.600;4.608;2023-10-08T03:38:46;14.70;99.90
23991;DHT22;12205;50.600;4.608;2023-10-08T03:41:17;14.60;99.90
23991;DHT22;12205;50.600;4.608;2023-10-08T03:43:54;14.60;99.90
23991;DHT22;12205;50.600;4.608;2023-10-08T03:46:28;14.60;99.90
23991;DHT22;12205;50.600;4.608;2023-10-08T03:48:55;14.60;99.90
23991;DHT22;12205;50.600;4.608;2023-10-08T03:51:23;14.50;99.90
23991;DHT22;12205;50.600;4.608;2023-10-08T03:53:53;14.50;99.90
23991;DHT22;12205;50.600;4.608;2023-10-08T03:56:42;14.50;99.90
23991;DHT22;12205;50.600;4.608;2023-10-08T03:59:15;14.50;99.90
23991;DHT22;12205;50.600;4.608;2023-10-08T04:01:56;14.40;99.90
23991;DHT22;12205;50.600;4.608;2023-10-08T04:04:26;14.40;99.90
23991;DHT22;12205;50.600;4.608;2023-10-08T04:07:15;14.40;99.90
23991;DHT22;12205;50.600;4.608;2023-10-08T04:09:54;14.40;99.90
23991;DHT22;12205;50.600;4.608;2023-10-08T04:12:35;14.30;99.90
23991;DHT22;12205;50.600;4.608;2023-10-08T04:15:11;14.30;99.90
23991;DHT22;12205;50.600;4.608;2023-10-08T04:17:39;14.30;99.90
23991;DHT22;12205;50.600;4.608;2023-10-08T04:20:11;14.20;99.90
23991;DHT22;12205;50.600;4.608;2023-10-08T04:22:56;14.20;99.90
23991;DHT22;12205;50.600;4.608;2023-10-08T04:25:25;14.20;99.90
23991;DHT22;12205;50.600;4.608;2023-10-08T04:27:54;14.10;99.90
23991;DHT22;12205;50.600;4.608;2023-10-08T04:30:25;14.10;99.90
23991;DHT22;12205;50.600;4.608;2023-10-08T04:32:59;14.00;99.90
23991;DHT22;12205;50.600;4.608;2023-10-08T04:35:32;14.00;99.90
23991;DHT22;12205;50.600;4.608;2023-10-08T04:38:03;14.00;99.90
23991;DHT22;12205;50.600;4.608;2023-10-08T04:40:34;13.90;99.90
23991;DHT22;12205;50.600;4.608;2023-10-08T04:43:07;13.90;99.90
23991;DHT22;12205;50.600;4.608;2023-10-08T04:45:37;13.80;99.90
23991;DHT22;12205;50.600;4.608;2023-10-08T04:48:05;13.80;99.90
23991;DHT22;12205;50.600;4.608;2023-10-08T04:50:35;13.80;99.90
23991;DHT22;12205;50.600;4.608;2023-10-08T04:53:03;13.80;99.90
23991;DHT22;12205;50.600;4.608;2023-10-08T04:55:34;13.80;99.90
23991;DHT22;12205;50.600;4.608;2023-10-08T04:58:07;13.80;99.90
23991;DHT22;12205;50.600;4.608;2023-10-08T05:00:46;13.80;99.90
23991;DHT22;12205;50.600;4.608;2023-10-08T05:03:20;13.80;99.90
23991;DHT22;12205;50.600;4.608;2023-10-08T05:05:49;13.70;99.90
23991;DHT22;12205;50.600;4.608;2023-10-08T05:08:33;13.70;99.90
23991;DHT22;12205;50.600;4.608;2023-10-08T05:11:13;13.70;99.90
23991;DHT22;12205;50.600;4.608;2023-10-08T05:14:11;13.70;99.90
23991;DHT22;12205;50.600;4.608;2023-10-08T05:16:56;13.70;99.90
23991;DHT22;12205;50.600;4.608;2023-10-08T05:19:26;13.60;99.90
23991;DHT22;12205;50.600;4.608;2023-10-08T05:22:15;13.60;99.90
23991;DHT22;12205;50.600;4.608;2023-10-08T05:25:07;13.60;99.90
23991;DHT22;12205;50.600;4.608;2023-10-08T05:27:52;13.70;99.90
23991;DHT22;12205;50.600;4.608;2023-10-08T05:30:24;13.60;99.90
23991;DHT22;12205;50.600;4.608;2023-10-08T05:32:55;13.60;99.90
23991;DHT22;12205;50.600;4.608;2023-10-08T05:35:32;13.60;99.90
23991;DHT22;12205;50.600;4.608;2023-10-08T05:38:20;13.60;99.90
23991;DHT22;12205;50.600;4.608;2023-10-08T05:41:06;13.60;99.90
23991;DHT22;12205;50.600;4.608;2023-10-08T05:43:59;13.60;99.90
23991;DHT22;12205;50.600;4.608;2023-10-08T05:46:49;13.60;99.90
23991;DHT22;12205;50.600;4.608;2023-10-08T05:49:44;13.50;99.90
23991;DHT22;12205;50.600;4.608;2023-10-08T05:52:40;13.50;99.90
23991;DHT22;12205;50.600;4.608;2023-10-08T05:55:16;13.50;99.90
23991;DHT22;12205;50.600;4.608;2023-10-08T05:57:52;13.50;99.90
23991;DHT22;12205;50.600;4.608;2023-10-08T06:00:28;13.50;99.90
23991;DHT22;12205;50.600;4.608;2023-10-08T06:03:27;13.50;99.90
23991;DHT22;12205;50.600;4.608;2023-10-08T06:06:13;13.50;99.90
23991;DHT22;12205;50.600;4.608;2023-10-08T06:09:02;13.40;99.90
23991;DHT22;12205;50.600;4.608;2023-10-08T06:11:48;13.40;99.90
23991;DHT22;12205;50.600;4.608;2023-10-08T06:14:34;13.40;99.90
23991;DHT22;12205;50.600;4.608;2023-10-08T06:17:33;13.40;99.90
23991;DHT22;12205;50.600;4.608;2023-10-08T06:20:10;13.40;99.90
23991;DHT22;12205;50.600;4.608;2023-10-08T06:22:43;13.40;99.90
23991;DHT22;12205;50.600;4.608;2023-10-08T06:25:11;13.50;99.90
23991;DHT22;12205;50.600;4.608;2023-10-08T06:27:49;13.50;99.90
23991;DHT22;12205;50.600;4.608;2023-10-08T06:30:19;13.50;99.90
23991;DHT22;12205;50.600;4.608;2023-10-08T06:32:47;13.60;99.90
23991;DHT22;12205;50.600;4.608;2023-10-08T06:35:16;13.60;99.90
23991;DHT22;12205;50.600;4.608;2023-10-08T06:37:46;13.60;99.90
23991;DHT22;12205;50.600;4.608;2023-10-08T06:40:15;13.70;99.90
23991;DHT22;12205;50.600;4.608;2023-10-08T06:43:12;13.80;99.90
23991;DHT22;12205;50.600;4.608;2023-10-08T06:45:48;13.80;99.90
23991;DHT22;12205;50.600;4.608;2023-10-08T06:48:18;13.90;99.90
23991;DHT22;12205;50.600;4.608;2023-10-08T06:50:48;14.00;99.90
23991;DHT22;12205;50.600;4.608;2023-10-08T06:53:17;14.10;99.90
23991;DHT22;12205;50.600;4.608;2023-10-08T06:55:45;14.20;99.90
23991;DHT22;12205;50.600;4.608;2023-10-08T06:58:15;14.40;99.90
23991;DHT22;12205;50.600;4.608;2023-10-08T07:00:43;14.40;99.90
23991;DHT22;12205;50.600;4.608;2023-10-08T07:03:14;14.50;99.90
23991;DHT22;12205;50.600;4.608;2023-10-08T07:05:44;14.60;99.90
23991;DHT22;12205;50.600;4.608;2023-10-08T07:08:21;14.70;99.90
23991;DHT22;12205;50.600;4.608;2023-10-08T07:10:49;14.80;99.90
23991;DHT22;12205;50.600;4.608;2023-10-08T07:13:18;15.00;99.90
23991;DHT22;12205;50.600;4.608;2023-10-08T07:15:48;15.10;99.90
23991;DHT22;12205;50.600;4.608;2023-10-08T07:18:15;15.20;99.90
23991;DHT22;12205;50.600;4.608;2023-10-08T07:20:51;15.40;99.90
23991;DHT22;12205;50.600;4.608;2023-10-08T07:23:27;15.50;99.90
23991;DHT22;12205;50.600;4.608;2023-10-08T07:25:56;15.60;99.90
23991;DHT22;12205;50.600;4.608;2023-10-08T07:28:38;15.70;99.90
23991;DHT22;12205;50.600;4.608;2023-10-08T07:31:12;15.80;99.90
23991;DHT22;12205;50.600;4.608;2023-10-08T07:33:41;15.90;99.90
23991;DHT22;12205;50.600;4.608;2023-10-08T07:36:10;15.90;99.90
23991;DHT22;12205;50.600;4.608;2023-10-08T07:38:39;16.00;99.90
23991;DHT22;12205;50.600;4.608;2023-10-08T07:41:08;16.10;99.90
23991;DHT22;12205;50.600;4.608;2023-10-08T07:43:39;16.10;99.90
23991;DHT22;12205;50.600;4.608;2023-10-08T07:46:07;16.00;99.90
23991;DHT22;12205;50.600;4.608;2023-10-08T07:48:36;16.10;99.90
23991;DHT22;12205;50.600;4.608;2023-10-08T07:51:08;16.10;99.90
23991;DHT22;12205;50.600;4.608;2023-10-08T07:53:35;16.20;99.90
23991;DHT22;12205;50.600;4.608;2023-10-08T07:56:04;16.30;99.90
23991;DHT22;12205;50.600;4.608;2023-10-08T07:58:34;16.30;99.90
23991;DHT22;12205;50.600;4.608;2023-10-08T08:01:06;16.40;99.90
23991;DHT22;12205;50.600;4.608;2023-10-08T08:03:36;16.60;99.90
23991;DHT22;12205;50.600;4.608;2023-10-08T08:06:04;16.70;99.90
23991;DHT22;12205;50.600;4.608;2023-10-08T08:08:33;16.80;99.90
23991;DHT22;12205;50.600;4.608;2023-10-08T08:11:01;16.90;99.90
23991;DHT22;12205;50.600;4.608;2023-10-08T08:13:38;17.00;99.90
23991;DHT22;12205;50.600;4.608;2023-10-08T08:16:10;17.10;99.90
23991;DHT22;12205;50.600;4.608;2023-10-08T08:18:43;17.20;99.90
23991;DHT22;12205;50.600;4.608;2023-10-08T08:21:11;17.30;99.90
23991;DHT22;12205;50.600;4.608;2023-10-08T08:23:42;17.40;99.90
23991;DHT22;12205;50.600;4.608;2023-10-08T08:26:16;17.40;99.90
23991;DHT22;12205;50.600;4.608;2023-10-08T08:28:58;17.50;99.90
23991;DHT22;12205;50.600;4.608;2023-10-08T08:31:32;17.60;99.90
23991;DHT22;12205;50.600;4.608;2023-10-08T08:34:06;17.70;99.90
23991;DHT22;12205;50.600;4.608;2023-10-08T08:36:40;17.80;99.90
23991;DHT22;12205;50.600;4.608;2023-10-08T08:39:14;17.90;99.90
23991;DHT22;12205;50.600;4.608;2023-10-08T08:41:59;18.00;99.90
23991;DHT22;12205;50.600;4.608;2023-10-08T08:44:28;18.10;99.90
23991;DHT22;12205;50.600;4.608;2023-10-08T08:47:00;18.10;99.90
23991;DHT22;12205;50.600;4.608;2023-10-08T08:49:31;18.20;99.90
23991;DHT22;12205;50.600;4.608;2023-10-08T08:52:00;18.30;99.90
23991;DHT22;12205;50.600;4.608;2023-10-08T08:54:27;18.40;99.90
23991;DHT22;12205;50.600;4.608;2023-10-08T08:56:56;18.40;99.90
23991;DHT22;12205;50.600;4.608;2023-10-08T08:59:26;18.50;99.90
23991;DHT22;12205;50.600;4.608;2023-10-08T09:01:56;18.60;99.90
23991;DHT22;12205;50.600;4.608;2023-10-08T09:04:30;18.70;99.90
23991;DHT22;12205;50.600;4.608;2023-10-08T09:06:59;18.70;99.90
23991;DHT22;12205;50.600;4.608;2023-10-08T09:09:33;18.80;99.90
23991;DHT22;12205;50.600;4.608;2023-10-08T09:12:06;18.90;99.90
23991;DHT22;12205;50.600;4.608;2023-10-08T09:14:36;19.00;99.90
23991;DHT22;12205;50.600;4.608;2023-10-08T09:17:05;19.20;99.90
23991;DHT22;12205;50.600;4.608;2023-10-08T09:19:37;19.20;99.90
23991;DHT22;12205;50.600;4.608;2023-10-08T09:22:07;19.30;99.90
23991;DHT22;12205;50.600;4.608;2023-10-08T09:24:37;19.30;99.90
23991;DHT22;12205;50.600;4.608;2023-10-08T09:27:06;19.30;99.90
23991;DHT22;12205;50.600;4.608;2023-10-08T09:29:34;19.50;99.90
23991;DHT22;12205;50.600;4.608;2023-10-08T09:32:05;19.60;99.90
23991;DHT22;12205;50.600;4.608;2023-10-08T09:34:36;19.70;99.90
23991;DHT22;12205;50.600;4.608;2023-10-08T09:37:04;19.90;99.90
23991;DHT22;12205;50.600;4.608;2023-10-08T09:39:31;20.00;99.90
23991;DHT22;12205;50.600;4.608;2023-10-08T09:42:01;20.10;99.90
23991;DHT22;12205;50.600;4.608;2023-10-08T09:44:30;20.10;99.90
23991;DHT22;12205;50.600;4.608;2023-10-08T09:47:02;20.10;99.90
23991;DHT22;12205;50.600;4.608;2023-10-08T09:49:32;20.10;99.90
23991;DHT22;12205;50.600;4.608;2023-10-08T09:52:06;20.20;99.90
23991;DHT22;12205;50.600;4.608;2023-10-08T09:54:41;20.30;99.90
23991;DHT22;12205;50.600;4.608;2023-10-08T09:57:11;20.50;99.90
23991;DHT22;12205;50.600;4.608;2023-10-08T09:59:39;20.60;99.90
23991;DHT22;12205;50.600;4.608;2023-10-08T10:02:07;20.70;99.90
23991;DHT22;12205;50.600;4.608;2023-10-08T10:04:36;20.80;99.90
23991;DHT22;12205;50.600;4.608;2023-10-08T10:07:12;20.90;99.90
23991;DHT22;12205;50.600;4.608;2023-10-08T10:09:43;20.90;99.90
23991;DHT22;12205;50.600;4.608;2023-10-08T10:12:15;21.00;99.90
23991;DHT22;12205;50.600;4.608;2023-10-08T10:14:52;21.10;99.90
23991;DHT22;12205;50.600;4.608;2023-10-08T10:17:23;21.30;99.90
23991;DHT22;12205;50.600;4.608;2023-10-08T10:19:54;21.40;99.90
23991;DHT22;12205;50.600;4.608;2023-10-08T10:22:30;21.40;99.90
23991;DHT22;12205;50.600;4.608;2023-10-08T10:25:01;21.40;99.90
23991;DHT22;12205;50.600;4.608;2023-10-08T10:27:41;21.40;99.90
23991;DHT22;12205;50.600;4.608;2023-10-08T10:30:09;21.40;99.90
23991;DHT22;12205;50.600;4.608;2023-10-08T10:32:38;21.50;99.90
23991;DHT22;12205;50.600;4.608;2023-10-08T10:35:05;21.40;99.90
23991;DHT22;12205;50.600;4.608;2023-10-08T10:37:39;21.40;99.90
23991;DHT22;12205;50.600;4.608;2023-10-08T10:40:10;21.40;99.90
23991;DHT22;12205;50.600;4.608;2023-10-08T10:42:39;21.30;99.90
23991;DHT22;12205;50.600;4.608;2023-10-08T10:45:13;21.40;99.90
23991;DHT22;12205;50.600;4.608;2023-10-08T10:48:00;21.40;99.90
23991;DHT22;12205;50.600;4.608;2023-10-08T10:50:39;21.40;99.90
23991;DHT22;12205;50.600;4.608;2023-10-08T10:53:17;21.40;99.90
23991;DHT22;12205;50.600;4.608;2023-10-08T10:55:45;21.50;99.90
23991;DHT22;12205;50.600;4.608;2023-10-08T10:58:24;21.50;99.90
23991;DHT22;12205;50.600;4.608;2023-10-08T11:00:54;21.50;99.90
23991;DHT22;12205;50.600;4.608;2023-10-08T11:03:25;21.60;99.90
23991;DHT22;12205;50.600;4.608;2023-10-08T11:05:57;21.70;99.90
23991;DHT22;12205;50.600;4.608;2023-10-08T11:08:33;21.70;99.90
23991;DHT22;12205;50.600;4.608;2023-10-08T11:11:03;21.80;99.90
23991;DHT22;12205;50.600;4.608;2023-10-08T11:13:35;21.90;99.90
23991;DHT22;12205;50.600;4.608;2023-10-08T11:16:07;22.00;99.90
23991;DHT22;12205;50.600;4.608;2023-10-08T11:18:43;22.00;99.90
23991;DHT22;12205;50.600;4.608;2023-10-08T11:21:12;22.00;99.90
23991;DHT22;12205;50.600;4.608;2023-10-08T11:23:50;22.10;99.90
23991;DHT22;12205;50.600;4.608;2023-10-08T11:26:25;22.20;99.90
23991;DHT22;12205;50.600;4.608;2023-10-08T11:28:59;22.10;99.90
23991;DHT22;12205;50.600;4.608;2023-10-08T11:31:29;22.10;99.90
23991;DHT22;12205;50.600;4.608;2023-10-08T11:34:00;22.20;99.90
23991;DHT22;12205;50.600;4.608;2023-10-08T11:36:35;22.40;99.90
23991;DHT22;12205;50.600;4.608;2023-10-08T11:39:15;22.50;99.90
23991;DHT22;12205;50.600;4.608;2023-10-08T11:41:58;22.70;99.90
23991;DHT22;12205;50.600;4.608;2023-10-08T11:44:29;22.70;99.90
23991;DHT22;12205;50.600;4.608;2023-10-08T11:47:01;22.60;99.90
23991;DHT22;12205;50.600;4.608;2023-10-08T11:49:37;22.70;99.90
23991;DHT22;12205;50.600;4.608;2023-10-08T11:52:12;22.80;99.90
23991;DHT22;12205;50.600;4.608;2023-10-08T11:54:42;22.90;99.90
23991;DHT22;12205;50.600;4.608;2023-10-08T11:57:13;23.00;99.90
23991;DHT22;12205;50.600;4.608;2023-10-08T11:59:45;23.20;99.90
23991;DHT22;12205;50.600;4.608;2023-10-08T12:02:12;23.50;99.90
23991;DHT22;12205;50.600;4.608;2023-10-08T12:04:42;23.90;99.90
23991;DHT22;12205;50.600;4.608;2023-10-08T12:07:10;24.50;99.90
23991;DHT22;12205;50.600;4.608;2023-10-08T12:09:39;25.30;99.90
23991;DHT22;12205;50.600;4.608;2023-10-08T12:12:08;26.10;99.90
23991;DHT22;12205;50.600;4.608;2023-10-08T12:14:37;26.80;99.90
23991;DHT22;12205;50.600;4.608;2023-10-08T12:17:04;27.40;99.90
23991;DHT22;12205;50.600;4.608;2023-10-08T12:19:36;28.20;99.90
23991;DHT22;12205;50.600;4.608;2023-10-08T12:22:06;29.00;99.90
23991;DHT22;12205;50.600;4.608;2023-10-08T12:24:34;29.80;99.90
23991;DHT22;12205;50.600;4.608;2023-10-08T12:27:01;30.50;99.90
23991;DHT22;12205;50.600;4.608;2023-10-08T12:29:30;31.10;99.90
23991;DHT22;12205;50.600;4.608;2023-10-08T12:31:58;31.30;99.90
23991;DHT22;12205;50.600;4.608;2023-10-08T12:34:26;31.90;99.90
23991;DHT22;12205;50.600;4.608;2023-10-08T12:36:55;32.50;99.90
23991;DHT22;12205;50.600;4.608;2023-10-08T12:39:22;32.80;99.90
23991;DHT22;12205;50.600;4.608;2023-10-08T12:41:53;33.20;99.70
23991;DHT22;12205;50.600;4.608;2023-10-08T12:44:23;33.20;98.30
23991;DHT22;12205;50.600;4.608;2023-10-08T12:46:51;33.50;96.90
23991;DHT22;12205;50.600;4.608;2023-10-08T12:49:18;33.80;96.60
23991;DHT22;12205;50.600;4.608;2023-10-08T12:51:46;34.10;95.70
23991;DHT22;12205;50.600;4.608;2023-10-08T12:54:13;34.70;96.00
23991;DHT22;12205;50.600;4.608;2023-10-08T12:56:47;34.90;93.90
23991;DHT22;12205;50.600;4.608;2023-10-08T12:59:20;35.20;92.90
23991;DHT22;12205;50.600;4.608;2023-10-08T13:01:50;35.70;91.70
23991;DHT22;12205;50.600;4.608;2023-10-08T13:04:20;35.90;91.00
23991;DHT22;12205;50.600;4.608;2023-10-08T13:06:52;36.00;88.50
23991;DHT22;12205;50.600;4.608;2023-10-08T13:09:22;36.30;86.20
23991;DHT22;12205;50.600;4.608;2023-10-08T13:11:52;36.60;86.80
23991;DHT22;12205;50.600;4.608;2023-10-08T13:14:19;37.00;80.00
23991;DHT22;12205;50.600;4.608;2023-10-08T13:16:48;37.20;79.90
23991;DHT22;12205;50.600;4.608;2023-10-08T13:19:20;37.50;79.00
23991;DHT22;12205;50.600;4.608;2023-10-08T13:21:49;38.00;73.00
23991;DHT22;12205;50.600;4.608;2023-10-08T13:24:18;38.40;71.30
23991;DHT22;12205;50.600;4.608;2023-10-08T13:26:45;38.90;74.10
23991;DHT22;12205;50.600;4.608;2023-10-08T13:29:13;39.30;67.90
23991;DHT22;12205;50.600;4.608;2023-10-08T13:31:40;39.70;64.60
23991;DHT22;12205;50.600;4.608;2023-10-08T13:34:07;39.80;60.80
23991;DHT22;12205;50.600;4.608;2023-10-08T13:36:38;39.70;64.30
23991;DHT22;12205;50.600;4.608;2023-10-08T13:39:05;39.80;60.20
23991;DHT22;12205;50.600;4.608;2023-10-08T13:41:35;39.30;57.70
23991;DHT22;12205;50.600;4.608;2023-10-08T13:44:04;39.10;57.90
23991;DHT22;12205;50.600;4.608;2023-10-08T13:46:32;39.40;59.20
23991;DHT22;12205;50.600;4.608;2023-10-08T13:49:02;39.80;58.60
23991;DHT22;12205;50.600;4.608;2023-10-08T13:51:31;39.70;56.50
23991;DHT22;12205;50.600;4.608;2023-10-08T13:54:02;39.70;58.30
23991;DHT22;12205;50.600;4.608;2023-10-08T13:56:33;39.90;57.80
23991;DHT22;12205;50.600;4.608;2023-10-08T13:59:03;39.90;56.80
23991;DHT22;12205;50.600;4.608;2023-10-08T14:01:38;39.90;55.10
23991;DHT22;12205;50.600;4.608;2023-10-08T14:04:08;39.40;56.00
23991;DHT22;12205;50.600;4.608;2023-10-08T14:06:37;39.10;54.30
23991;DHT22;12205;50.600;4.608;2023-10-08T14:09:09;38.60;56.90
23991;DHT22;12205;50.600;4.608;2023-10-08T14:11:37;38.90;57.10
23991;DHT22;12205;50.600;4.608;2023-10-08T14:14:05;38.90;55.80
23991;DHT22;12205;50.600;4.608;2023-10-08T14:16:36;39.00;57.30
23991;DHT22;12205;50.600;4.608;2023-10-08T14:19:07;39.10;57.10
23991;DHT22;12205;50.600;4.608;2023-10-08T14:21:38;39.00;56.60
23991;DHT22;12205;50.600;4.608;2023-10-08T14:24:16;39.00;55.70
23991;DHT22;12205;50.600;4.608;2023-10-08T14:26:44;39.00;57.10
23991;DHT22;12205;50.600;4.608;2023-10-08T14:29:17;38.50;57.00
23991;DHT22;12205;50.600;4.608;2023-10-08T14:31:45;38.30;57.20
23991;DHT22;12205;50.600;4.608;2023-10-08T14:34:14;38.40;57.50
23991;DHT22;12205;50.600;4.608;2023-10-08T14:37:08;38.60;57.10
23991;DHT22;12205;50.600;4.608;2023-10-08T14:39:54;38.30;57.30
23991;DHT22;12205;50.600;4.608;2023-10-08T14:42:39;38.00;57.70
23991;DHT22;12205;50.600;4.608;2023-10-08T14:45:22;37.70;56.90
23991;DHT22;12205;50.600;4.608;2023-10-08T14:47:53;36.90;57.20
23991;DHT22;12205;50.600;4.608;2023-10-08T14:50:21;36.60;56.80
23991;DHT22;12205;50.600;4.608;2023-10-08T14:52:48;36.00;57.80
23991;DHT22;12205;50.600;4.608;2023-10-08T14:55:17;35.60;58.90
23991;DHT22;12205;50.600;4.608;2023-10-08T14:57:47;35.30;60.00
23991;DHT22;12205;50.600;4.608;2023-10-08T15:00:17;35.30;60.10
23991;DHT22;12205;50.600;4.608;2023-10-08T15:02:51;35.30;60.70
23991;DHT22;12205;50.600;4.608;2023-10-08T15:05:20;35.30;61.10
23991;DHT22;12205;50.600;4.608;2023-10-08T15:07:47;34.80;61.70
23991;DHT22;12205;50.600;4.608;2023-10-08T15:10:17;34.70;62.40
23991;DHT22;12205;50.600;4.608;2023-10-08T15:12:45;34.40;62.90
23991;DHT22;12205;50.600;4.608;2023-10-08T15:15:12;34.10;62.70
23991;DHT22;12205;50.600;4.608;2023-10-08T15:17:40;33.80;63.40
23991;DHT22;12205;50.600;4.608;2023-10-08T15:20:09;33.20;65.10
23991;DHT22;12205;50.600;4.608;2023-10-08T15:22:40;33.00;66.10
23991;DHT22;12205;50.600;4.608;2023-10-08T15:25:09;32.70;67.20
23991;DHT22;12205;50.600;4.608;2023-10-08T15:27:39;32.40;68.00
23991;DHT22;12205;50.600;4.608;2023-10-08T15:30:09;32.30;69.20
23991;DHT22;12205;50.600;4.608;2023-10-08T15:32:38;32.10;69.70
23991;DHT22;12205;50.600;4.608;2023-10-08T15:35:07;31.80;70.70
23991;DHT22;12205;50.600;4.608;2023-10-08T15:37:35;31.60;71.40
23991;DHT22;12205;50.600;4.608;2023-10-08T15:40:04;31.20;72.10
23991;DHT22;12205;50.600;4.608;2023-10-08T15:42:32;31.00;73.00
23991;DHT22;12205;50.600;4.608;2023-10-08T15:45:04;30.30;75.10
23991;DHT22;12205;50.600;4.608;2023-10-08T15:47:31;29.90;77.10
23991;DHT22;12205;50.600;4.608;2023-10-08T15:49:59;29.60;78.70
23991;DHT22;12205;50.600;4.608;2023-10-08T15:52:26;29.10;80.60
23991;DHT22;12205;50.600;4.608;2023-10-08T15:54:53;29.00;82.20
23991;DHT22;12205;50.600;4.608;2023-10-08T15:57:21;28.80;84.80
23991;DHT22;12205;50.600;4.608;2023-10-08T15:59:48;28.60;85.50
23991;DHT22;12205;50.600;4.608;2023-10-08T16:02:17;28.50;88.20